KCNU

Chanute Martin Johnson Airport

Chanute, Kansas, USA
KCNU 141720Z 1418/1518 36015G22KT P6SM OVC007 FM142000 01015G22KT P6SM SCT010 FM150000 36009KT P6SM SKC
Issued Valid From Valid To
Dec-14 @ 17:20 UTC
(5 hours ago)
Dec-14 @ 18:00 UTC
(5 hours ago)
Dec-15 @ 18:00 UTC
(in 19 hours)
Expired Click to View Dec-14 @ 18:00 to Dec-14 @ 20:00
KCNU 141720Z 1418/1518 36015G22KT P6SM OVC007
Wind Visibility Clouds
360° at 15 knots
 Gusting to 22 knots
Greater than 6 miles
  • Overcast at 700' AGL
From Dec-14 @ 20:00 to Dec-15 @ 00:00
FM142000 01015G22KT P6SM SCT010
Wind Visibility Clouds
10° at 15 knots
 Gusting to 22 knots
Greater than 6 miles
  • Scattered at 1,000' AGL
From Dec-15 @ 00:00 to Dec-15 @ 18:00
FM150000 36009KT P6SM SKC
Wind Visibility Clouds
360° at 9 knots Greater than 6 miles
  • Clear skies
KCNU 141720Z 1418/1518 36015G22KT P6SM OVC007 FM142000 01015G22KT P6SM SCT010 FM150000 36009KT P6SM SKC
Issued Dec-14 @ 17:20 UTC
(5 hours ago)
Valid From Dec-14 @ 18:00 UTC
(5 hours ago)
Valid To Dec-15 @ 18:00 UTC
(in 19 hours)
Dec-14 @ 18:00 - Dec-14 @ 20:00
Wind Visibility
360° at 15 knots
 Gusting to 22 knots
Greater than 6 miles
Clouds
  • Overcast at 700' AGL
From Dec-14 @ 20:00 - Dec-15 @ 00:00
Wind Visibility
10° at 15 knots
 Gusting to 22 knots
Greater than 6 miles
Clouds
  • Scattered at 1,000' AGL
From Dec-15 @ 00:00 - Dec-15 @ 18:00
Wind Visibility
360° at 9 knots Greater than 6 miles
Clouds
  • Clear skies